KGSB/GSB METAR and TAF weather

Enter ICAO airport designator
Station Type Date Time Source
KGSB METAR 2021/09/23 18:56 UTC NOAA

KGSB 231856Z AUTO 33008KT 10SM CLR 26/14 A2986 RMK AO2 SLP114 T02640142 $


Station Type Date Time Source
KGSB Decoded METAR 2021/09/23 18:56 UTC NOAA

Seymour-Johnson Air Force Base, NC, United States (KGSB) 35-20N 077-58W
Sep 23, 2021 - 02:56 PM EDT / 2021.09.23 1856 UTC
Wind: from the NNW (330 degrees) at 9 MPH (8 KT):0
Visibility: 10 mile(s):0
Sky conditions: clear
Temperature: 79.5 F (26.4 C)
Dew Point: 57.6 F (14.2 C)
Relative Humidity: 47%
Pressure (altimeter): 29.86 in. Hg (1011 hPa)
ob: KGSB 231856Z AUTO 33008KT 10SM CLR 26/14 A2986 RMK AO2 SLP114 T02640142
cycle: 19

Station Type Date Time Source
KGSB TAF 2021/09/23 12:08 UTC NOAA

TAF KGSB 231200Z 2312/2418 32009KT 9999 BKN020 QNH2983INS
BECMG 2312/2313 33009KT 9999 FEW045 FEW130 QNH2983INS TX26/2319Z TN12/2409Z

Example: see airport list